Time;durP1;ratioP1;P1;durP2;ratioP2;P2;SDS_P1;SDS_P2;PMS_P1;PMS_P2;Temp;Humidity;BMP_temperature;BMP_pressure;BME280_temperature;BME280_humidity;BME280_pressure;Samples;Min_cycle;Max_cycle;Signal;HPM_P1;HPM_P2
2023/01/25 00:00:29;;;;;;;29.57;20.90;;;0.20;1.00;;;;;;5118187;28;20464;-67
2023/01/25 00:02:56;;;;;;;27.53;19.10;;;0.20;1.00;;;;;;5118280;27;20469;-67
2023/01/25 00:05:23;;;;;;;24.37;16.93;;;0.10;1.00;;;;;;5117497;27;20435;-67
2023/01/25 00:07:51;;;;;;;26.07;18.67;;;0.10;1.00;;;;;;5118590;28;20558;-67
2023/01/25 00:10:18;;;;;;;25.90;19.80;;;0.10;11.30;;;;;;5118631;27;20558;-67
2023/01/25 00:12:47;;;;;;;28.97;19.10;;;0.10;99.90;;;;;;5116653;28;20464;-67
2023/01/25 00:15:14;;;;;;;26.57;18.30;;;0.20;99.90;;;;;;5119884;28;20471;-67
2023/01/25 00:17:41;;;;;;;27.57;18.23;;;0.10;99.90;;;;;;5121922;27;20884;-67
2023/01/25 00:20:10;;;;;;;29.30;18.90;;;0.10;99.90;;;;;;5117950;28;20456;-67
2023/01/25 00:22:37;;;;;;;30.00;19.33;;;0.10;99.90;;;;;;5118638;28;20455;-67
2023/01/25 00:25:05;;;;;;;28.40;17.50;;;0.10;99.90;;;;;;5121929;27;20920;-67
2023/01/25 00:27:32;;;;;;;26.93;18.07;;;0.10;1.00;;;;;;5127153;28;20463;-67
2023/01/25 00:30:00;;;;;;;31.20;20.60;;;0.10;1.00;;;;;;5138552;27;20490;-67
2023/01/25 00:32:47;;;;;;;29.33;17.70;;;0.10;99.90;;;;;;5136364;27;20497;-68
2023/01/25 00:35:14;;;;;;;29.80;19.20;;;0.00;99.90;;;;;;5127685;28;20779;-67
2023/01/25 00:37:44;;;;;;;30.53;18.43;;;0.00;1.00;;;;;;5137748;27;20470;-67
2023/01/25 00:40:12;;;;;;;30.50;19.70;;;0.00;1.00;;;;;;5138472;27;20748;-67
2023/01/25 00:42:40;;;;;;;31.17;20.73;;;0.10;1.00;;;;;;5138404;27;20808;-67
2023/01/25 00:45:11;;;;;;;25.77;17.93;;;0.00;1.00;;;;;;5136350;27;20463;-67
2023/01/25 00:47:39;;;;;;;29.60;18.63;;;0.10;1.00;;;;;;5138051;27;20466;-67
2023/01/25 00:50:08;;;;;;;27.80;18.60;;;0.00;1.00;;;;;;5137624;27;20496;-67
2023/01/25 00:52:35;;;;;;;31.37;18.43;;;-0.10;99.90;;;;;;5137416;27;20447;-67
2023/01/25 00:55:02;;;;;;;32.03;20.33;;;-0.10;19.60;;;;;;5135615;27;20465;-67
2023/01/25 00:57:29;;;;;;;33.20;20.63;;;0.00;99.90;;;;;;5138429;27;20451;-67
2023/01/25 00:59:56;;;;;;;31.57;19.30;;;0.00;99.90;;;;;;5136560;27;20433;-67
2023/01/25 01:02:25;;;;;;;27.43;17.13;;;0.00;1.00;;;;;;5137777;27;20462;-67
2023/01/25 01:04:55;;;;;;;31.20;20.90;;;-0.10;6.70;;;;;;5135731;28;20455;-67
2023/01/25 01:07:22;;;;;;;34.23;20.53;;;-0.10;99.90;;;;;;5138254;27;20466;-67
2023/01/25 01:09:49;;;;;;;29.70;19.17;;;0.00;1.00;;;;;;5137526;27;20748;-67
2023/01/25 01:12:16;;;;;;;30.30;19.53;;;0.00;1.00;;;;;;5137856;27;20448;-67
2023/01/25 01:14:43;;;;;;;35.40;20.57;;;0.10;1.00;;;;;;5135419;27;20565;-67
2023/01/25 01:17:10;;;;;;;30.40;19.50;;;0.10;1.00;;;;;;5138101;27;20433;-67
2023/01/25 01:19:39;;;;;;;33.47;19.43;;;0.00;1.00;;;;;;5127911;27;20490;-67
2023/01/25 01:22:06;;;;;;;29.83;19.57;;;0.00;1.00;;;;;;5116738;28;20460;-67
2023/01/25 01:24:34;;;;;;;32.37;20.50;;;0.00;1.00;;;;;;5117107;28;20860;-67
2023/01/25 01:27:01;;;;;;;31.53;19.90;;;-0.10;1.00;;;;;;5117814;28;20471;-67
2023/01/25 01:29:28;;;;;;;32.10;19.23;;;-0.10;1.00;;;;;;5131069;28;20487;-67
2023/01/25 01:31:55;;;;;;;33.70;20.07;;;0.00;74.70;;;;;;5131430;28;21014;-67
2023/01/25 01:34:22;;;;;;;31.40;19.20;;;-0.10;80.40;;;;;;5127969;27;21012;-67
2023/01/25 01:36:51;;;;;;;34.57;20.27;;;0.00;99.90;;;;;;5136454;27;20466;-67
2023/01/25 01:39:18;;;;;;;39.20;22.17;;;0.10;99.90;;;;;;5140153;27;20451;-67
2023/01/25 01:41:46;;;;;;;34.17;19.60;;;0.00;99.90;;;;;;5140416;27;20466;-67
2023/01/25 01:44:18;;;;;;;36.40;19.77;;;0.00;99.90;;;;;;5140766;27;20463;-67
2023/01/25 01:46:51;;;;;;;32.37;19.73;;;0.00;99.90;;;;;;5138329;27;20461;-68
2023/01/25 01:49:23;;;;;;;35.07;20.17;;;0.00;99.90;;;;;;5138293;27;20578;-67
2023/01/25 01:51:55;;;;;;;33.20;19.97;;;-0.10;99.90;;;;;;5122760;27;20501;-67
2023/01/25 01:54:27;;;;;;;31.43;19.27;;;-0.10;99.90;;;;;;5121618;27;20766;-67
2023/01/25 01:56:58;;;;;;;33.00;19.67;;;0.00;99.90;;;;;;5136710;27;20455;-67
2023/01/25 01:59:30;;;;;;;30.77;18.93;;;0.00;99.90;;;;;;5130254;27;20524;-68
2023/01/25 02:01:57;;;;;;;31.57;20.20;;;0.00;99.90;;;;;;5120717;27;20447;-67
2023/01/25 02:04:27;;;;;;;35.67;19.80;;;0.00;99.90;;;;;;5120083;27;20560;-67
2023/01/25 02:07:01;;;;;;;36.30;20.30;;;0.00;99.90;;;;;;5136212;27;20463;-67
2023/01/25 02:09:31;;;;;;;33.40;20.20;;;0.00;99.90;;;;;;5140879;27;20457;-67
2023/01/25 02:12:00;;;;;;;35.07;20.60;;;0.00;99.90;;;;;;5140544;27;20488;-67
2023/01/25 02:14:29;;;;;;;36.30;21.13;;;0.00;99.90;;;;;;5140404;27;20490;-67
2023/01/25 02:16:56;;;;;;;32.33;20.53;;;0.00;99.90;;;;;;5140324;27;20462;-68
2023/01/25 02:19:35;;;;;;;39.70;21.90;;;0.00;99.90;;;;;;5138877;27;20463;-68
2023/01/25 02:22:09;;;;;;;34.57;20.60;;;0.00;99.90;;;;;;5140121;27;20465;-67
2023/01/25 02:24:39;;;;;;;35.50;20.40;;;0.10;99.90;;;;;;5140308;27;20564;-67
2023/01/25 02:27:11;;;;;;;28.50;19.10;;;0.20;99.90;;;;;;5140356;27;20516;-67
2023/01/25 02:29:39;;;;;;;32.70;19.60;;;0.20;99.90;;;;;;5138218;27;20755;-67
2023/01/25 02:32:07;;;;;;;29.93;18.60;;;0.10;99.90;;;;;;5139804;27;20489;-68
2023/01/25 02:34:35;;;;;;;35.50;20.70;;;0.10;99.90;;;;;;5138346;27;20862;-68
2023/01/25 02:37:02;;;;;;;29.93;18.30;;;0.10;99.90;;;;;;5121850;27;20888;-68
2023/01/25 02:39:30;;;;;;;27.97;16.77;;;0.00;99.90;;;;;;5121488;27;20931;-68
2023/01/25 02:41:57;;;;;;;30.40;16.77;;;-0.10;99.90;;;;;;5133848;27;20519;-68
2023/01/25 02:44:27;;;;;;;28.90;17.07;;;-0.10;99.90;;;;;;5139486;27;20463;-67
2023/01/25 02:46:55;;;;;;;31.37;18.30;;;-0.10;99.90;;;;;;5139219;27;20570;-68
2023/01/25 02:49:22;;;;;;;36.40;19.53;;;-0.10;99.90;;;;;;5134428;27;20508;-67
2023/01/25 02:51:54;;;;;;;35.40;18.83;;;0.00;99.90;;;;;;5122967;27;20474;-68
2023/01/25 02:54:22;;;;;;;33.20;19.70;;;0.00;99.90;;;;;;5139948;27;20462;-67
2023/01/25 02:56:52;;;;;;;32.30;18.87;;;0.00;99.90;;;;;;5139607;27;20469;-68
2023/01/25 02:59:19;;;;;;;38.30;21.07;;;0.00;99.90;;;;;;5135831;27;20463;-68
2023/01/25 03:01:48;;;;;;;29.63;17.03;;;0.00;99.90;;;;;;5119484;28;20881;-68
2023/01/25 03:04:18;;;;;;;31.60;18.00;;;0.10;99.90;;;;;;5118290;28;20468;-68
2023/01/25 03:06:46;;;;;;;29.50;17.07;;;0.00;99.90;;;;;;5119006;28;20474;-67
2023/01/25 03:09:13;;;;;;;31.47;17.53;;;0.00;99.90;;;;;;5132488;27;20482;-67
2023/01/25 03:11:40;;;;;;;27.93;16.63;;;0.00;99.90;;;;;;5136612;27;20461;-68
2023/01/25 03:14:10;;;;;;;33.47;18.27;;;0.00;99.90;;;;;;5119263;28;20492;-68
2023/01/25 03:16:37;;;;;;;33.13;17.37;;;0.00;99.90;;;;;;5126153;27;20523;-67
2023/01/25 03:19:06;;;;;;;31.90;16.53;;;-0.10;99.90;;;;;;5139885;27;20458;-68
2023/01/25 03:21:33;;;;;;;27.97;15.73;;;0.00;99.90;;;;;;5125178;27;20487;-67
2023/01/25 03:24:01;;;;;;;26.13;16.83;;;-0.10;99.90;;;;;;5118751;28;20554;-67
2023/01/25 03:26:29;;;;;;;28.30;17.80;;;-0.10;99.90;;;;;;5118597;28;20470;-67
2023/01/25 03:28:56;;;;;;;29.80;16.80;;;-0.10;99.90;;;;;;5118851;28;20463;-68
2023/01/25 03:31:24;;;;;;;34.27;18.43;;;-0.10;99.90;;;;;;5119819;27;20463;-67
2023/01/25 03:33:51;;;;;;;27.00;15.87;;;0.00;99.90;;;;;;5133309;27;20574;-67
2023/01/25 03:36:20;;;;;;;29.83;17.80;;;0.00;99.90;;;;;;5137032;27;20761;-67
2023/01/25 03:38:47;;;;;;;30.00;16.43;;;0.00;99.90;;;;;;5137427;27;20466;-67
2023/01/25 03:41:14;;;;;;;28.67;17.03;;;0.00;99.90;;;;;;5127976;27;20450;-67
2023/01/25 03:43:41;;;;;;;32.63;18.03;;;0.00;99.90;;;;;;5125863;27;20869;-68
2023/01/25 03:46:08;;;;;;;32.90;18.93;;;0.00;99.90;;;;;;5138594;27;20735;-68
2023/01/25 03:48:35;;;;;;;29.57;17.53;;;0.00;99.90;;;;;;5138083;27;20458;-68
2023/01/25 03:51:03;;;;;;;24.20;14.67;;;0.00;99.90;;;;;;5130475;27;20586;-68
2023/01/25 03:53:31;;;;;;;29.07;16.10;;;0.00;99.90;;;;;;5119762;27;20475;-67
2023/01/25 03:56:00;;;;;;;25.70;15.10;;;0.00;99.90;;;;;;5130702;27;20892;-67
2023/01/25 03:58:28;;;;;;;26.83;16.57;;;0.00;99.90;;;;;;5138063;27;20462;-68
2023/01/25 04:00:57;;;;;;;26.50;15.20;;;0.00;99.90;;;;;;5138094;27;20773;-68
2023/01/25 04:03:25;;;;;;;28.30;15.90;;;0.00;99.90;;;;;;5134703;27;20462;-67
2023/01/25 04:05:52;;;;;;;26.10;15.60;;;0.00;99.90;;;;;;5137205;27;20470;-68
2023/01/25 04:08:19;;;;;;;25.50;16.37;;;0.00;99.90;;;;;;5136377;27;20470;-67
2023/01/25 04:10:52;;;;;;;27.33;16.60;;;0.00;99.90;;;;;;5137457;27;20958;-68
2023/01/25 04:13:20;;;;;;;28.87;16.10;;;0.00;99.90;;;;;;5134511;27;20494;-67
2023/01/25 04:15:47;;;;;;;29.13;15.93;;;0.10;99.90;;;;;;5136487;27;20458;-68
2023/01/25 04:18:15;;;;;;;26.47;14.57;;;0.00;99.90;;;;;;5138246;27;20864;-68
2023/01/25 04:20:43;;;;;;;23.47;14.17;;;0.00;99.90;;;;;;5138792;27;20896;-68
2023/01/25 04:23:10;;;;;;;28.77;14.90;;;-0.10;99.90;;;;;;5136664;27;20459;-68
2023/01/25 04:25:38;;;;;;;25.03;15.10;;;-0.10;99.90;;;;;;5138885;27;20458;-68
2023/01/25 04:28:07;;;;;;;28.53;16.00;;;-0.10;99.90;;;;;;5137857;27;20903;-67
2023/01/25 04:30:34;;;;;;;26.20;14.40;;;-0.20;99.90;;;;;;5138385;27;20537;-67
2023/01/25 04:33:05;;;;;;;24.30;13.90;;;-0.20;99.90;;;;;;5137991;27;20645;-68
2023/01/25 04:35:32;;;;;;;25.87;15.23;;;-0.20;99.90;;;;;;5120013;27;20813;-68
2023/01/25 04:38:00;;;;;;;23.87;15.50;;;-0.20;99.90;;;;;;5138655;27;20746;-68
2023/01/25 04:40:28;;;;;;;24.90;14.67;;;-0.10;99.90;;;;;;5138353;27;20562;-67
2023/01/25 04:42:55;;;;;;;25.50;15.00;;;-0.10;99.90;;;;;;5138306;27;20902;-67
2023/01/25 04:45:24;;;;;;;25.00;14.33;;;-0.10;99.90;;;;;;5138706;27;20480;-68
2023/01/25 04:47:56;;;;;;;23.70;14.80;;;-0.10;99.90;;;;;;5136135;27;20463;-67
2023/01/25 04:50:23;;;;;;;23.43;13.97;;;-0.10;99.90;;;;;;5137485;27;20942;-67
2023/01/25 04:52:52;;;;;;;21.67;13.20;;;0.00;99.90;;;;;;5138513;27;20740;-67
2023/01/25 04:55:19;;;;;;;25.00;14.73;;;-0.10;99.90;;;;;;5138440;27;20459;-67
2023/01/25 04:57:48;;;;;;;23.90;13.67;;;0.00;99.90;;;;;;5135921;27;20466;-68
2023/01/25 05:00:16;;;;;;;26.10;14.50;;;0.00;99.90;;;;;;5138629;27;20485;-68
2023/01/25 05:02:45;;;;;;;27.33;14.97;;;0.00;99.90;;;;;;5137487;27;20461;-68
2023/01/25 05:05:13;;;;;;;23.07;13.10;;;0.00;99.90;;;;;;5137650;27;20455;-68
2023/01/25 05:07:40;;;;;;;22.93;13.57;;;0.00;99.90;;;;;;5136163;27;20459;-68
2023/01/25 05:10:09;;;;;;;27.10;16.13;;;-0.10;99.90;;;;;;5140014;27;20780;-68
2023/01/25 05:12:36;;;;;;;26.30;15.30;;;-0.10;99.90;;;;;;5136233;27;20745;-68
2023/01/25 05:15:04;;;;;;;29.10;16.10;;;0.00;99.90;;;;;;5142101;27;20458;-68
2023/01/25 05:17:31;;;;;;;26.23;15.13;;;-0.10;99.90;;;;;;5140769;27;20465;-68
2023/01/25 05:20:04;;;;;;;28.03;16.73;;;0.00;99.90;;;;;;5141741;27;20451;-68
2023/01/25 05:22:34;;;;;;;26.63;15.10;;;0.00;99.90;;;;;;5134901;27;20761;-67
2023/01/25 05:28:05;;;;;;;20.40;12.60;;;-0.20;99.90;;;;;;5139755;27;20760;-68
2023/01/25 05:30:33;;;;;;;22.47;12.70;;;-0.10;99.90;;;;;;5141534;27;20498;-67
2023/01/25 05:33:00;;;;;;;20.43;12.23;;;-0.30;99.90;;;;;;5133310;27;20470;-67
2023/01/25 05:35:28;;;;;;;23.70;13.60;;;-0.20;99.90;;;;;;5136096;27;20463;-68
2023/01/25 05:37:57;;;;;;;18.97;13.10;;;-0.10;99.90;;;;;;5135842;27;20898;-67
2023/01/25 05:40:24;;;;;;;25.17;14.80;;;-0.10;99.90;;;;;;5137095;27;20726;-67
2023/01/25 05:42:56;;;;;;;27.07;15.20;;;-0.20;99.90;;;;;;5139388;27;20480;-67
2023/01/25 05:45:23;;;;;;;23.80;14.60;;;-0.10;99.90;;;;;;5140938;27;20851;-67
2023/01/25 05:47:53;;;;;;;26.40;16.70;;;-0.10;99.90;;;;;;5140693;27;20471;-67
2023/01/25 05:50:21;;;;;;;24.43;14.40;;;-0.10;99.90;;;;;;5140148;27;20474;-67
2023/01/25 05:52:49;;;;;;;24.40;13.73;;;-0.10;99.90;;;;;;5138320;27;20474;-68
2023/01/25 05:55:17;;;;;;;28.13;15.03;;;-0.10;99.90;;;;;;5139930;27;20749;-68
2023/01/25 05:57:44;;;;;;;33.47;17.70;;;-0.10;99.90;;;;;;5139882;27;20466;-68
2023/01/25 06:00:12;;;;;;;37.83;17.53;;;-0.20;99.90;;;;;;5138541;27;20921;-68
2023/01/25 06:02:39;;;;;;;69.50;35.60;;;-0.10;99.90;;;;;;5138758;27;20458;-68
2023/01/25 06:05:08;;;;;;;41.77;26.53;;;-0.10;99.90;;;;;;5139077;27;20810;-68
2023/01/25 06:07:36;;;;;;;52.63;40.23;;;-0.10;99.90;;;;;;5140033;27;20455;-68
2023/01/25 06:10:06;;;;;;;35.00;26.17;;;-0.10;99.90;;;;;;5138117;27;20781;-68
2023/01/25 06:12:33;;;;;;;25.60;17.03;;;-0.10;99.90;;;;;;5137754;27;20459;-67
2023/01/25 06:15:01;;;;;;;28.33;17.07;;;0.00;99.90;;;;;;5130891;27;20438;-67
2023/01/25 06:17:28;;;;;;;28.37;16.17;;;0.00;99.90;;;;;;5139126;27;20477;-68
2023/01/25 06:19:55;;;;;;;27.10;16.00;;;0.10;99.90;;;;;;5138337;27;20459;-67
2023/01/25 06:22:22;;;;;;;27.13;16.03;;;0.00;99.90;;;;;;5136324;27;20795;-67
2023/01/25 06:24:49;;;;;;;27.03;16.93;;;-0.10;99.90;;;;;;5134680;27;20740;-67
2023/01/25 06:27:18;;;;;;;23.47;13.27;;;-0.20;99.90;;;;;;5129303;27;20896;-67
2023/01/25 06:29:45;;;;;;;24.20;13.97;;;-0.20;99.90;;;;;;5138751;27;20539;-68
2023/01/25 06:32:12;;;;;;;25.83;14.90;;;-0.30;99.90;;;;;;5134383;27;20463;-67
2023/01/25 06:34:39;;;;;;;24.20;13.60;;;-0.20;99.90;;;;;;5133193;27;20466;-67
2023/01/25 06:37:06;;;;;;;27.10;15.73;;;-0.20;99.90;;;;;;5132335;27;20469;-68
2023/01/25 06:39:33;;;;;;;24.53;15.70;;;-0.20;99.90;;;;;;5137257;27;20758;-67
2023/01/25 06:42:00;;;;;;;25.33;15.30;;;-0.20;99.90;;;;;;5129532;27;20459;-67
2023/01/25 06:44:29;;;;;;;25.40;15.40;;;-0.10;99.90;;;;;;5135688;27;20733;-68
2023/01/25 06:46:57;;;;;;;26.30;13.20;;;-0.10;99.90;;;;;;5119913;27;20468;-67
2023/01/25 06:49:24;;;;;;;25.77;15.50;;;-0.20;99.90;;;;;;5138205;27;20451;-68
2023/01/25 06:51:51;;;;;;;21.33;14.13;;;-0.20;99.90;;;;;;5136862;27;20748;-67
2023/01/25 06:54:18;;;;;;;26.50;14.40;;;-0.20;99.90;;;;;;5138151;27;20459;-67
2023/01/25 06:56:46;;;;;;;25.33;13.77;;;-0.10;99.90;;;;;;5131562;27;20470;-67
2023/01/25 06:59:14;;;;;;;23.30;14.10;;;-0.20;99.90;;;;;;5129207;27;20473;-67
2023/01/25 07:01:43;;;;;;;22.73;14.50;;;-0.30;99.90;;;;;;5137793;27;20933;-68
2023/01/25 07:04:11;;;;;;;22.80;13.87;;;-0.30;99.90;;;;;;5135348;27;20477;-68
2023/01/25 07:06:39;;;;;;;23.50;14.30;;;-0.30;99.90;;;;;;5132669;27;20511;-67
2023/01/25 07:09:07;;;;;;;27.60;14.90;;;-0.20;99.90;;;;;;5137199;27;20467;-67
2023/01/25 07:11:35;;;;;;;28.80;15.53;;;-0.20;99.90;;;;;;5137626;27;20486;-67
2023/01/25 07:14:03;;;;;;;26.00;15.87;;;-0.30;99.90;;;;;;5134186;27;20494;-67
2023/01/25 07:16:35;;;;;;;42.67;22.07;;;-0.20;99.90;;;;;;5137039;27;20469;-67
2023/01/25 07:19:04;;;;;;;44.17;21.27;;;-0.20;99.90;;;;;;5124812;27;20471;-67
2023/01/25 07:21:32;;;;;;;38.17;22.23;;;-0.20;99.90;;;;;;5138211;27;20459;-67
2023/01/25 07:24:01;;;;;;;33.43;20.17;;;-0.20;99.90;;;;;;5131915;27;20455;-67
2023/01/25 07:26:29;;;;;;;30.20;17.20;;;-0.20;99.90;;;;;;5126315;27;20464;-67
2023/01/25 07:28:57;;;;;;;25.57;15.80;;;-0.20;99.90;;;;;;5133069;27;20466;-67
2023/01/25 07:31:25;;;;;;;22.30;14.37;;;-0.20;99.90;;;;;;5124433;27;20487;-68
2023/01/25 07:33:53;;;;;;;24.60;13.97;;;-0.10;99.90;;;;;;5126836;27;20467;-67
2023/01/25 07:36:22;;;;;;;26.10;14.60;;;-0.20;99.90;;;;;;5137541;27;20758;-68
2023/01/25 07:38:52;;;;;;;29.83;15.20;;;-0.20;99.90;;;;;;5123712;27;20463;-68
2023/01/25 07:41:19;;;;;;;25.13;15.03;;;-0.30;99.90;;;;;;5122209;27;20482;-67
2023/01/25 07:43:46;;;;;;;28.53;15.50;;;-0.20;99.90;;;;;;5123853;27;20463;-67
2023/01/25 07:46:15;;;;;;;23.20;14.43;;;-0.20;99.90;;;;;;5134431;27;20459;-67
2023/01/25 07:48:47;;;;;;;24.70;13.97;;;-0.20;99.90;;;;;;5135593;27;20891;-67
2023/01/25 07:51:22;;;;;;;22.93;15.13;;;-0.20;99.90;;;;;;5123462;27;20490;-67
2023/01/25 07:53:52;;;;;;;24.97;16.70;;;-0.10;99.90;;;;;;5137782;27;20485;-67
2023/01/25 07:56:21;;;;;;;28.23;16.23;;;0.00;99.90;;;;;;5136218;27;20777;-67
2023/01/25 07:58:48;;;;;;;26.70;15.03;;;0.00;99.90;;;;;;5137351;27;20462;-67
2023/01/25 08:01:17;;;;;;;28.50;16.57;;;0.00;99.90;;;;;;5126367;27;20464;-67
2023/01/25 08:03:44;;;;;;;27.90;15.13;;;0.10;99.90;;;;;;5125730;27;20463;-67
2023/01/25 08:06:12;;;;;;;29.63;15.80;;;0.20;99.90;;;;;;5130816;27;20463;-67
2023/01/25 08:08:41;;;;;;;26.43;14.37;;;0.30;99.90;;;;;;5120418;27;20474;-67
2023/01/25 08:11:13;;;;;;;26.40;15.60;;;0.30;99.90;;;;;;5130000;27;20806;-67
2023/01/25 08:13:40;;;;;;;24.37;14.00;;;0.30;99.90;;;;;;5132586;27;20486;-67
2023/01/25 08:16:07;;;;;;;29.20;14.63;;;0.10;99.90;;;;;;5136633;27;20465;-65
2023/01/25 08:18:34;;;;;;;26.17;16.13;;;0.20;99.90;;;;;;5132479;27;20459;-65
2023/01/25 08:21:02;;;;;;;26.87;15.10;;;0.20;99.90;;;;;;5121110;27;20459;-65
2023/01/25 08:23:30;;;;;;;23.90;14.37;;;0.20;99.90;;;;;;5128537;27;20450;-65
2023/01/25 08:26:02;;;;;;;29.17;15.50;;;0.20;99.90;;;;;;5133691;27;20463;-65
2023/01/25 08:28:30;;;;;;;28.90;14.90;;;0.10;99.90;;;;;;5134925;27;20467;-65
2023/01/25 08:31:06;;;;;;;23.90;14.67;;;0.20;99.90;;;;;;5133795;28;20497;-65
2023/01/25 08:33:33;;;;;;;31.30;16.67;;;0.10;99.90;;;;;;5137484;27;20484;-65
2023/01/25 08:36:01;;;;;;;31.50;19.13;;;0.20;99.90;;;;;;5129129;27;20993;-65
2023/01/25 08:38:28;;;;;;;26.93;16.20;;;0.10;99.90;;;;;;5121240;27;20849;-65
2023/01/25 08:40:55;;;;;;;27.43;18.00;;;0.10;99.90;;;;;;5120007;28;20461;-65
2023/01/25 08:43:22;;;;;;;31.20;19.73;;;0.00;99.90;;;;;;5122463;27;20458;-65
2023/01/25 08:45:57;;;;;;;26.50;16.93;;;0.10;99.90;;;;;;5138621;27;20556;-65
2023/01/25 08:48:25;;;;;;;31.97;20.73;;;0.20;99.90;;;;;;5138128;27;20473;-65
2023/01/25 08:50:52;;;;;;;29.97;15.90;;;0.00;99.90;;;;;;5136403;27;20485;-65
2023/01/25 08:53:19;;;;;;;34.33;20.83;;;0.00;99.90;;;;;;5141349;27;20462;-65
2023/01/25 08:55:46;;;;;;;31.57;17.30;;;0.00;99.90;;;;;;5139257;27;20470;-65
2023/01/25 08:58:15;;;;;;;26.03;15.90;;;0.00;99.90;;;;;;5139379;27;20993;-65
2023/01/25 09:00:43;;;;;;;29.00;17.87;;;0.00;99.90;;;;;;5141687;27;20466;-65
2023/01/25 09:03:12;;;;;;;30.40;19.73;;;0.00;99.90;;;;;;5140762;27;20469;-65
2023/01/25 09:05:39;;;;;;;32.33;19.40;;;0.00;99.90;;;;;;5141320;27;20473;-65
2023/01/25 09:08:08;;;;;;;33.53;18.63;;;0.10;99.90;;;;;;5122839;27;20467;-65
2023/01/25 09:10:35;;;;;;;38.33;19.67;;;0.10;99.90;;;;;;5123109;27;20566;-65
2023/01/25 09:13:02;;;;;;;35.67;16.80;;;0.10;99.90;;;;;;5137621;27;20478;-65
2023/01/25 09:15:30;;;;;;;33.53;18.47;;;0.10;99.90;;;;;;5141777;27;20462;-65
2023/01/25 09:17:57;;;;;;;28.93;17.20;;;0.10;99.90;;;;;;5135624;27;20454;-66
2023/01/25 09:20:26;;;;;;;30.90;17.60;;;0.20;99.90;;;;;;5142088;27;20826;-65
2023/01/25 09:22:54;;;;;;;31.97;17.90;;;0.20;99.90;;;;;;5140367;27;20454;-65
2023/01/25 09:25:21;;;;;;;27.70;15.80;;;0.20;99.90;;;;;;5131679;27;20788;-66
2023/01/25 09:27:50;;;;;;;35.10;21.47;;;0.20;99.90;;;;;;5135561;27;20466;-66
2023/01/25 09:30:17;;;;;;;27.00;16.97;;;0.20;99.90;;;;;;5133267;27;20508;-65
2023/01/25 09:32:45;;;;;;;31.90;18.50;;;0.10;99.90;;;;;;5131161;27;20946;-66
2023/01/25 09:35:12;;;;;;;31.13;16.83;;;0.20;99.90;;;;;;5130203;27;20459;-66
2023/01/25 09:37:40;;;;;;;27.13;15.57;;;0.20;99.90;;;;;;5135870;27;20465;-66
2023/01/25 09:40:20;;;;;;;27.83;15.93;;;0.10;99.90;;;;;;5121300;27;20470;-66
2023/01/25 09:42:58;;;;;;;30.33;16.20;;;0.20;99.90;;;;;;5137405;27;20451;-66
2023/01/25 09:45:32;;;;;;;28.30;15.30;;;0.20;99.90;;;;;;5128471;27;20486;-66
2023/01/25 09:48:04;;;;;;;31.83;16.80;;;0.20;99.90;;;;;;5134934;27;20522;-66
2023/01/25 09:50:41;;;;;;;25.67;15.47;;;0.30;99.90;;;;;;5137401;27;20470;-66
2023/01/25 09:53:31;;;;;;;28.23;17.60;;;0.30;99.90;;;;;;5139777;27;20482;-66
2023/01/25 09:56:01;;;;;;;25.00;15.63;;;0.30;99.90;;;;;;5133355;27;20887;-66
2023/01/25 09:58:33;;;;;;;22.30;13.20;;;0.30;99.90;;;;;;5118841;27;20463;-66
2023/01/25 10:01:13;;;;;;;20.67;13.90;;;0.40;99.90;;;;;;5122128;27;20462;-67
2023/01/25 10:03:48;;;;;;;27.40;18.50;;;0.30;99.90;;;;;;5141052;27;20459;-66
2023/01/25 10:06:17;;;;;;;23.83;14.83;;;0.30;99.90;;;;;;5137484;27;20437;-66
2023/01/25 10:08:51;;;;;;;31.37;19.30;;;0.30;99.90;;;;;;5140102;27;20542;-66
2023/01/25 10:11:23;;;;;;;23.70;15.63;;;0.20;99.90;;;;;;5132894;27;20461;-66
2023/01/25 10:13:50;;;;;;;25.03;15.03;;;0.10;99.90;;;;;;5140532;27;20492;-66
2023/01/25 10:16:23;;;;;;;28.37;17.70;;;0.10;99.90;;;;;;5139188;27;20467;-66
2023/01/25 10:18:59;;;;;;;21.73;13.07;;;0.20;99.90;;;;;;5125040;27;20893;-66
2023/01/25 10:21:30;;;;;;;25.37;16.40;;;0.20;99.90;;;;;;5122994;27;20885;-66
2023/01/25 10:24:27;;;;;;;25.00;14.90;;;0.20;99.90;;;;;;5140985;27;20462;-66
2023/01/25 10:26:58;;;;;;;25.60;16.10;;;0.30;99.90;;;;;;5139107;27;20466;-66
2023/01/25 10:29:28;;;;;;;23.63;13.63;;;0.20;99.90;;;;;;5140751;27;20465;-66
2023/01/25 10:32:00;;;;;;;23.43;14.90;;;0.20;99.90;;;;;;5137746;27;20490;-66
2023/01/25 10:34:32;;;;;;;21.60;12.20;;;0.30;99.90;;;;;;5139979;27;20553;-66
2023/01/25 10:37:04;;;;;;;18.30;10.80;;;0.20;99.90;;;;;;5132922;27;20449;-66
2023/01/25 10:39:38;;;;;;;22.20;12.40;;;0.00;99.90;;;;;;5140576;27;20768;-66
2023/01/25 10:42:09;;;;;;;22.10;13.03;;;0.00;99.90;;;;;;5127720;27;20469;-66
2023/01/25 10:44:36;;;;;;;20.47;12.73;;;0.00;99.90;;;;;;5126582;27;20463;-66
2023/01/25 10:47:13;;;;;;;19.60;12.70;;;0.20;99.90;;;;;;5138012;27;20463;-66
2023/01/25 10:49:42;;;;;;;19.47;12.70;;;0.30;99.90;;;;;;5131433;27;20467;-65
2023/01/25 10:52:14;;;;;;;20.97;12.93;;;0.30;99.90;;;;;;5132782;27;20490;-64
2023/01/25 10:54:43;;;;;;;20.10;12.40;;;0.40;99.90;;;;;;5121883;27;20482;-61
2023/01/25 10:57:17;;;;;;;21.60;13.33;;;0.50;99.90;;;;;;5133691;27;20475;-63
2023/01/25 10:59:46;;;;;;;21.27;12.43;;;0.50;99.90;;;;;;5120046;27;20472;-63
2023/01/25 11:02:39;;;;;;;22.47;13.10;;;0.50;99.90;;;;;;5134558;27;20758;-61
2023/01/25 11:05:27;;;;;;;21.43;12.90;;;0.40;99.90;;;;;;5137364;27;20503;-62
2023/01/25 11:07:55;;;;;;;22.23;12.47;;;0.40;99.90;;;;;;5133443;27;20467;-61
2023/01/25 11:10:33;;;;;;;26.00;16.10;;;0.40;99.90;;;;;;5124550;27;20463;-61
2023/01/25 11:13:24;;;;;;;26.43;14.73;;;0.50;99.90;;;;;;5129640;27;20490;-61
2023/01/25 11:15:54;;;;;;;25.00;13.90;;;0.50;99.90;;;;;;5139700;27;20477;-62
2023/01/25 11:18:24;;;;;;;23.37;14.80;;;0.60;99.90;;;;;;5135685;27;20557;-63
2023/01/25 11:21:06;;;;;;;33.20;17.67;;;0.70;99.90;;;;;;5136402;27;20553;-63
2023/01/25 11:23:34;;;;;;;27.30;17.70;;;0.80;99.90;;;;;;5138556;27;20465;-62
2023/01/25 11:26:17;;;;;;;27.70;16.67;;;0.80;99.90;;;;;;5138862;27;20451;-62
2023/01/25 11:28:44;;;;;;;31.10;17.30;;;0.90;99.90;;;;;;5138142;27;20451;-63
2023/01/25 11:31:13;;;;;;;33.57;17.10;;;1.00;99.90;;;;;;5139157;27;20454;-62
2023/01/25 11:33:41;;;;;;;29.13;18.03;;;1.00;99.90;;;;;;5128932;27;20548;-63
2023/01/25 11:36:22;;;;;;;29.90;17.03;;;1.00;99.90;;;;;;5118738;27;20446;-60
2023/01/25 11:39:10;;;;;;;30.90;16.50;;;0.90;99.90;;;;;;5136875;27;20462;-62
2023/01/25 11:41:48;;;;;;;32.73;18.13;;;1.00;99.90;;;;;;5126920;27;20760;-61
2023/01/25 11:44:43;;;;;;;33.90;18.20;;;1.10;99.90;;;;;;5136418;27;20469;-62
2023/01/25 11:47:23;;;;;;;30.70;17.20;;;1.10;99.90;;;;;;5137853;27;20876;-59
2023/01/25 11:49:57;;;;;;;31.60;17.80;;;1.20;99.90;;;;;;5121003;27;20841;-62
2023/01/25 11:52:33;;;;;;;34.30;19.37;;;1.20;99.90;;;;;;5138139;27;20483;-62
2023/01/25 11:55:12;;;;;;;35.30;18.10;;;1.00;99.90;;;;;;5136883;27;20800;-62
2023/01/25 11:58:00;;;;;;;38.17;19.80;;;1.20;99.90;;;;;;5137331;27;20759;-62
2023/01/25 12:00:41;;;;;;;32.67;18.10;;;1.30;99.90;;;;;;5135462;27;20463;-62
2023/01/25 12:03:28;;;;;;;35.10;19.23;;;1.30;99.90;;;;;;5136765;27;20765;-61
2023/01/25 12:06:06;;;;;;;42.37;24.73;;;1.20;99.90;;;;;;5125894;27;20447;-63
2023/01/25 12:08:57;;;;;;;39.47;23.43;;;1.40;99.90;;;;;;5136600;27;20459;-62
2023/01/25 12:11:37;;;;;;;37.97;20.20;;;1.40;99.90;;;;;;5135390;27;20477;-63
2023/01/25 12:14:14;;;;;;;36.63;20.17;;;1.40;99.90;;;;;;5120366;27;20785;-63
2023/01/25 12:16:56;;;;;;;34.57;19.07;;;1.20;99.90;;;;;;5117661;27;20455;-63
2023/01/25 12:19:44;;;;;;;37.23;21.43;;;1.30;99.90;;;;;;5136569;27;20446;-63
2023/01/25 12:22:26;;;;;;;42.93;22.93;;;1.40;99.90;;;;;;5133519;27;20477;-63
2023/01/25 12:25:02;;;;;;;45.43;24.30;;;1.30;99.90;;;;;;5119476;27;20832;-64
2023/01/25 12:27:42;;;;;;;110.37;48.50;;;1.30;99.90;;;;;;5132842;27;20897;-64
2023/01/25 12:30:21;;;;;;;38.30;22.13;;;1.30;99.90;;;;;;5137743;27;20545;-63
2023/01/25 12:32:53;;;;;;;54.33;28.03;;;1.10;99.90;;;;;;5127133;27;20486;-63
2023/01/25 12:35:30;;;;;;;38.13;20.90;;;1.10;99.90;;;;;;5136169;27;20471;-63
2023/01/25 12:38:03;;;;;;;32.43;19.07;;;1.10;99.90;;;;;;5137376;27;20855;-62
2023/01/25 12:40:42;;;;;;;35.07;19.10;;;1.00;99.90;;;;;;5138188;27;20463;-63
2023/01/25 12:43:18;;;;;;;32.00;19.40;;;0.90;99.90;;;;;;5136897;27;20470;-63
2023/01/25 12:45:49;;;;;;;47.33;23.33;;;0.90;99.90;;;;;;5137879;27;20913;-63
2023/01/25 12:48:21;;;;;;;32.50;18.67;;;0.90;99.90;;;;;;5128128;28;20478;-62
2023/01/25 12:50:54;;;;;;;40.87;19.40;;;0.90;99.90;;;;;;5130207;28;20467;-63
2023/01/25 12:53:24;;;;;;;32.37;19.10;;;1.00;99.90;;;;;;5125495;28;20494;-63